Time;durP1;ratioP1;P1;durP2;ratioP2;P2;SDS_P1;SDS_P2;PMS_P1;PMS_P2;Temp;Humidity;BMP_temperature;BMP_pressure;BME280_temperature;BME280_humidity;BME280_pressure;Samples;Min_cycle;Max_cycle;Signal;HPM_P1;HPM_P2
2023/05/28 00:01:04;;;;;;;7.28;5.55;;;22.30;96.70;;;;;;4975146;28;20066;-70
2023/05/28 00:12:01;;;;;;;6.28;5.03;;;21.80;96.70;;;;;;4980304;28;20424;-70
2023/05/28 00:14:35;;;;;;;6.03;5.13;;;21.80;96.70;;;;;;4963232;28;20042;-69
2023/05/28 00:17:03;;;;;;;6.35;4.88;;;21.70;96.70;;;;;;4979388;28;20046;-69
2023/05/28 00:19:31;;;;;;;6.80;4.57;;;21.70;96.70;;;;;;4979098;28;20068;-70
2023/05/28 00:22:00;;;;;;;7.28;4.78;;;21.70;96.70;;;;;;4960922;28;20656;-70
2023/05/28 00:25:05;;;;;;;6.75;4.78;;;21.70;96.70;;;;;;4962587;28;20046;-70
2023/05/28 00:27:34;;;;;;;6.70;4.45;;;21.60;96.70;;;;;;4957399;28;20129;-70
2023/05/28 00:30:05;;;;;;;5.05;4.28;;;21.60;96.70;;;;;;4943864;28;20539;-70
2023/05/28 00:32:34;;;;;;;7.68;4.50;;;21.60;96.70;;;;;;4959359;28;20445;-70
2023/05/28 00:35:03;;;;;;;6.60;4.10;;;21.60;96.70;;;;;;4960948;28;20034;-70
2023/05/28 00:37:31;;;;;;;6.93;4.40;;;21.60;96.70;;;;;;4958667;28;20049;-70
2023/05/28 00:40:00;;;;;;;6.28;4.63;;;21.70;96.70;;;;;;4955987;28;20061;-70
2023/05/28 00:50:49;;;;;;;6.40;4.05;;;21.20;96.70;;;;;;4958344;28;20050;-70
2023/05/28 00:53:18;;;;;;;6.93;5.10;;;21.30;96.70;;;;;;4957034;28;20046;-70
2023/05/28 00:55:47;;;;;;;6.88;4.57;;;21.20;96.70;;;;;;4958824;28;20149;-70
2023/05/28 00:58:19;;;;;;;7.55;4.43;;;21.20;96.70;;;;;;4955113;28;20072;-70
2023/05/28 01:26:09;;;;;;;5.80;4.18;;;21.30;96.70;;;;;;4956217;28;20065;-70
2023/05/28 01:28:43;;;;;;;4.75;3.70;;;21.20;96.70;;;;;;4960139;28;20050;-70
2023/05/28 01:31:13;;;;;;;4.82;4.32;;;21.20;96.70;;;;;;4961098;28;20428;-70
2023/05/28 01:33:42;;;;;;;4.70;3.90;;;21.10;96.70;;;;;;4978348;28;20046;-70
2023/05/28 02:27:28;;;;;;;7.22;4.28;;;20.40;96.70;;;;;;4964207;28;20856;-70
2023/05/28 02:30:00;;;;;;;5.50;4.45;;;20.20;96.70;;;;;;4963030;28;20574;-70
2023/05/28 02:32:28;;;;;;;7.97;4.10;;;20.10;96.70;;;;;;4976758;28;20046;-70
2023/05/28 02:34:57;;;;;;;5.80;3.95;;;20.10;96.70;;;;;;4975940;28;20397;-70
2023/05/28 03:15:44;;;;;;;7.45;4.38;;;19.90;96.70;;;;;;4972493;28;20734;-71
2023/05/28 03:18:13;;;;;;;6.45;4.35;;;19.90;96.70;;;;;;4976364;28;20038;-71
2023/05/28 03:20:42;;;;;;;4.88;3.97;;;19.90;96.70;;;;;;4946038;28;20698;-71
2023/05/28 03:23:10;;;;;;;6.43;4.50;;;19.90;96.70;;;;;;4962966;28;20045;-70
2023/05/28 03:25:52;;;;;;;7.07;4.32;;;20.00;96.70;;;;;;4963389;28;20614;-70
2023/05/28 03:28:20;;;;;;;8.50;4.75;;;20.00;96.70;;;;;;4962583;28;20067;-71
2023/05/28 03:31:04;;;;;;;5.93;4.82;;;19.90;96.70;;;;;;4962024;28;20076;-70
2023/05/28 03:33:33;;;;;;;6.68;4.45;;;19.80;96.70;;;;;;4959073;28;20057;-70
2023/05/28 03:36:01;;;;;;;5.07;4.30;;;19.80;96.70;;;;;;4958511;28;20043;-70
2023/05/28 03:38:29;;;;;;;8.77;4.30;;;19.80;96.70;;;;;;4966903;28;20054;-70
2023/05/28 03:40:57;;;;;;;5.80;4.60;;;19.70;96.70;;;;;;4961958;28;20622;-70
2023/05/28 03:43:25;;;;;;;7.43;4.68;;;19.70;96.70;;;;;;4964351;28;20084;-70
2023/05/28 03:45:53;;;;;;;6.15;4.35;;;19.80;96.70;;;;;;4955176;28;20385;-70
2023/05/28 03:48:23;;;;;;;5.20;4.50;;;19.80;96.70;;;;;;4966135;28;20053;-69
2023/05/28 03:50:50;;;;;;;5.93;4.13;;;19.80;96.70;;;;;;4964641;28;20049;-69
2023/05/28 03:53:20;;;;;;;5.78;4.55;;;19.90;96.70;;;;;;4967997;28;20046;-68
2023/05/28 03:55:51;;;;;;;5.05;4.43;;;19.90;96.70;;;;;;4967160;28;20046;-69
2023/05/28 03:58:21;;;;;;;5.85;4.32;;;20.00;96.70;;;;;;4965649;28;20048;-69
2023/05/28 04:00:49;;;;;;;7.60;4.40;;;20.00;96.70;;;;;;4982974;28;20050;-69
2023/05/28 04:03:16;;;;;;;5.85;4.38;;;20.00;96.70;;;;;;4963606;28;20042;-69
2023/05/28 04:05:47;;;;;;;6.25;4.78;;;20.00;96.70;;;;;;4964678;28;20728;-69
2023/05/28 04:08:15;;;;;;;8.68;4.30;;;20.10;96.70;;;;;;4968795;28;20054;-69
2023/05/28 04:10:43;;;;;;;8.85;4.95;;;20.10;96.70;;;;;;4967836;28;20043;-69
2023/05/28 04:13:11;;;;;;;7.07;5.05;;;20.10;96.70;;;;;;4960976;28;20055;-69
2023/05/28 04:15:39;;;;;;;7.13;5.18;;;20.10;96.70;;;;;;4956000;28;20165;-68
2023/05/28 04:18:06;;;;;;;5.82;4.18;;;20.20;96.70;;;;;;4961761;28;20140;-69
2023/05/28 04:20:38;;;;;;;6.85;4.80;;;20.10;96.70;;;;;;4968452;28;20057;-69
2023/05/28 04:23:07;;;;;;;6.85;4.93;;;20.00;96.70;;;;;;4985645;28;20061;-69
2023/05/28 04:25:36;;;;;;;7.43;4.43;;;20.00;96.70;;;;;;4964646;28;20042;-70
2023/05/28 04:28:05;;;;;;;7.07;4.55;;;19.90;96.70;;;;;;4964757;28;20066;-69
2023/05/28 04:30:33;;;;;;;8.90;4.47;;;19.90;96.70;;;;;;4966834;28;20046;-69
2023/05/28 04:33:01;;;;;;;6.47;4.53;;;20.00;96.70;;;;;;4969045;28;20153;-69
2023/05/28 04:35:29;;;;;;;8.65;4.60;;;20.00;96.70;;;;;;4968014;28;20561;-69
2023/05/28 04:37:59;;;;;;;6.45;4.30;;;20.00;96.70;;;;;;4985258;28;20038;-69
2023/05/28 04:40:28;;;;;;;7.93;4.88;;;20.00;96.70;;;;;;4966601;28;20100;-69
2023/05/28 04:42:57;;;;;;;7.13;4.70;;;20.10;96.70;;;;;;4966086;28;20958;-68
2023/05/28 04:45:27;;;;;;;7.47;4.90;;;20.10;96.70;;;;;;4966896;28;20062;-69
2023/05/28 04:47:55;;;;;;;5.82;4.53;;;20.00;96.70;;;;;;4966957;28;20038;-69
2023/05/28 04:50:23;;;;;;;5.97;4.50;;;20.10;96.70;;;;;;4956690;28;20182;-69
2023/05/28 04:52:53;;;;;;;5.53;4.13;;;20.00;96.70;;;;;;4984697;28;20046;-69
2023/05/28 04:55:23;;;;;;;7.35;4.40;;;20.10;96.70;;;;;;4984707;28;20133;-70
2023/05/28 04:57:52;;;;;;;6.28;4.47;;;20.20;96.70;;;;;;4959581;28;20145;-70
2023/05/28 05:00:20;;;;;;;5.63;4.80;;;20.10;96.70;;;;;;4984307;28;20054;-70
2023/05/28 05:02:48;;;;;;;6.28;4.65;;;20.10;96.70;;;;;;4967226;28;20045;-70
2023/05/28 05:05:16;;;;;;;7.40;4.60;;;20.10;96.70;;;;;;4983857;28;20046;-70
2023/05/28 05:07:44;;;;;;;8.25;4.35;;;20.10;96.70;;;;;;4966849;28;20061;-69
2023/05/28 05:10:13;;;;;;;7.60;4.70;;;20.10;96.70;;;;;;4965823;28;20053;-69
2023/05/28 05:12:41;;;;;;;8.43;5.00;;;20.10;96.70;;;;;;4949447;28;20145;-69
2023/05/28 05:15:12;;;;;;;7.07;4.88;;;20.20;96.70;;;;;;4966309;28;20054;-69
2023/05/28 05:17:40;;;;;;;6.43;4.90;;;20.20;96.70;;;;;;4964164;28;20090;-69
2023/05/28 05:20:09;;;;;;;7.72;4.75;;;20.20;96.70;;;;;;4966775;28;20053;-70
2023/05/28 05:22:37;;;;;;;8.43;5.18;;;20.20;96.70;;;;;;4966655;28;20519;-69
2023/05/28 05:25:07;;;;;;;5.30;4.53;;;20.20;96.70;;;;;;4984440;28;20614;-69
2023/05/28 05:27:36;;;;;;;5.32;4.78;;;20.20;96.70;;;;;;4983425;28;20466;-69
2023/05/28 05:30:05;;;;;;;6.63;4.65;;;20.30;96.70;;;;;;4965709;28;20054;-68
2023/05/28 05:32:35;;;;;;;5.35;4.30;;;20.30;96.70;;;;;;4966219;28;20137;-70
2023/05/28 05:35:03;;;;;;;7.22;5.18;;;20.30;96.70;;;;;;4963460;28;20069;-69
2023/05/28 05:38:03;;;;;;;7.38;4.63;;;20.40;96.70;;;;;;4922237;29;20056;-69
2023/05/28 05:41:10;;;;;;;9.93;5.07;;;20.40;96.70;;;;;;4884103;29;20067;-68
2023/05/28 05:43:50;;;;;;;6.28;4.82;;;20.50;96.70;;;;;;4882228;29;20048;-68
2023/05/28 05:46:18;;;;;;;8.88;5.13;;;20.50;96.70;;;;;;4884258;29;20077;-69
2023/05/28 05:48:48;;;;;;;9.15;5.78;;;20.50;96.70;;;;;;4878652;29;20048;-69
2023/05/28 05:51:18;;;;;;;7.40;5.15;;;20.40;96.70;;;;;;4864618;29;20057;-69
2023/05/28 05:53:46;;;;;;;8.38;5.40;;;20.40;96.70;;;;;;4864411;29;20105;-69
2023/05/28 05:56:13;;;;;;;9.32;5.20;;;20.50;96.70;;;;;;4882545;29;20200;-70
2023/05/28 05:58:42;;;;;;;6.68;4.95;;;20.70;96.70;;;;;;4882402;29;20148;-70
2023/05/28 06:01:16;;;;;;;5.65;5.07;;;20.90;96.70;;;;;;4884142;29;20649;-70
2023/05/28 06:03:44;;;;;;;5.90;4.80;;;21.00;96.70;;;;;;4877168;29;20060;-70
2023/05/28 06:06:52;;;;;;;6.97;5.05;;;21.10;96.70;;;;;;4881413;29;20172;-70
2023/05/28 06:09:45;;;;;;;6.55;5.47;;;21.10;96.70;;;;;;4879689;29;20048;-70
2023/05/28 06:12:18;;;;;;;7.38;5.25;;;21.20;96.70;;;;;;4883403;29;20535;-70
2023/05/28 06:14:47;;;;;;;8.57;4.80;;;21.30;96.70;;;;;;4918067;29;20106;-70
2023/05/28 06:17:16;;;;;;;5.43;4.90;;;21.40;96.70;;;;;;4906273;29;20051;-69
2023/05/28 06:19:49;;;;;;;7.32;5.82;;;21.50;96.70;;;;;;4906521;29;20179;-69
2023/05/28 06:22:20;;;;;;;10.73;5.35;;;21.50;96.70;;;;;;4905940;29;20051;-69
2023/05/28 06:24:49;;;;;;;7.20;5.55;;;21.50;96.70;;;;;;4906896;29;20514;-70
2023/05/28 06:27:17;;;;;;;6.47;5.00;;;21.70;96.70;;;;;;4922051;29;20048;-70
2023/05/28 06:29:47;;;;;;;7.95;5.05;;;21.70;96.70;;;;;;4905966;29;20070;-68
2023/05/28 06:32:22;;;;;;;6.22;5.00;;;21.80;96.70;;;;;;4890781;29;20047;-69
2023/05/28 06:34:50;;;;;;;8.68;4.75;;;21.80;96.70;;;;;;4905943;29;20056;-69
2023/05/28 06:37:21;;;;;;;6.20;4.85;;;21.90;96.70;;;;;;4925315;28;20058;-70
2023/05/28 06:39:49;;;;;;;7.00;4.82;;;21.90;96.70;;;;;;4962690;28;20061;-69
2023/05/28 06:42:17;;;;;;;5.63;4.43;;;22.00;96.70;;;;;;4963723;28;20084;-70
2023/05/28 06:45:07;;;;;;;5.88;4.95;;;22.10;96.70;;;;;;4965223;28;20056;-70
2023/05/28 06:47:35;;;;;;;6.18;5.05;;;22.10;96.70;;;;;;4948755;28;20109;-69
2023/05/28 06:50:04;;;;;;;6.35;4.80;;;22.20;96.70;;;;;;4960323;28;20039;-69
2023/05/28 06:52:33;;;;;;;5.38;4.40;;;22.20;96.70;;;;;;4965338;28;20050;-70
2023/05/28 06:55:02;;;;;;;6.90;5.10;;;22.30;96.70;;;;;;4965323;28;20101;-69
2023/05/28 06:57:33;;;;;;;6.53;4.53;;;22.40;96.70;;;;;;4980866;28;20044;-70
2023/05/28 07:00:25;;;;;;;7.85;4.82;;;22.40;96.70;;;;;;4947874;28;20054;-70
2023/05/28 07:03:16;;;;;;;6.20;5.05;;;22.50;96.70;;;;;;4939151;28;20061;-69
2023/05/28 07:05:48;;;;;;;6.00;4.85;;;22.50;96.70;;;;;;4964611;28;20508;-69
2023/05/28 07:08:17;;;;;;;5.63;4.82;;;22.60;96.70;;;;;;4965009;28;20108;-70
2023/05/28 07:10:45;;;;;;;5.20;4.70;;;22.60;96.70;;;;;;4964814;28;20042;-70
2023/05/28 07:13:14;;;;;;;6.55;4.80;;;22.70;96.70;;;;;;4963386;28;20050;-70
2023/05/28 07:15:42;;;;;;;8.07;5.15;;;22.80;96.70;;;;;;4949110;28;20499;-71
2023/05/28 07:18:11;;;;;;;6.20;4.85;;;22.80;96.70;;;;;;4964323;28;20062;-70
2023/05/28 07:20:39;;;;;;;8.23;5.63;;;22.90;96.70;;;;;;4965284;28;20046;-70
2023/05/28 07:23:14;;;;;;;7.18;5.43;;;23.00;96.70;;;;;;4965137;28;20046;-70
2023/05/28 07:25:43;;;;;;;7.13;5.25;;;23.10;96.70;;;;;;4965594;28;20043;-70
2023/05/28 07:28:11;;;;;;;6.40;5.40;;;23.10;96.70;;;;;;4981070;28;20132;-69
2023/05/28 07:30:40;;;;;;;7.75;5.53;;;23.20;96.70;;;;;;4964270;28;20066;-70
2023/05/28 07:33:08;;;;;;;7.18;5.03;;;23.30;96.70;;;;;;4953836;28;20054;-71
2023/05/28 07:35:37;;;;;;;7.60;5.03;;;23.30;96.70;;;;;;4964885;28;20545;-70
2023/05/28 07:38:07;;;;;;;10.32;5.50;;;23.40;96.70;;;;;;4964512;28;20055;-69
2023/05/28 07:40:35;;;;;;;6.30;5.05;;;23.50;96.70;;;;;;4982308;28;20074;-69
2023/05/28 07:43:16;;;;;;;7.47;5.18;;;23.60;96.70;;;;;;4961348;28;20556;-69
2023/05/28 07:45:44;;;;;;;5.63;5.13;;;23.60;96.70;;;;;;4962263;28;20047;-69
2023/05/28 07:48:13;;;;;;;6.78;5.75;;;23.70;96.70;;;;;;4964129;28;20053;-70
2023/05/28 07:50:47;;;;;;;7.22;5.50;;;23.80;96.70;;;;;;4964487;28;20077;-70
2023/05/28 07:53:30;;;;;;;5.65;5.15;;;23.90;96.70;;;;;;4964580;28;20481;-69
2023/05/28 07:55:58;;;;;;;7.85;5.30;;;24.10;96.70;;;;;;4964838;28;20058;-70
2023/05/28 07:58:28;;;;;;;6.13;5.13;;;24.20;96.70;;;;;;4963371;28;20428;-69
2023/05/28 08:00:57;;;;;;;6.10;5.40;;;24.30;96.70;;;;;;4963152;28;20050;-70
2023/05/28 08:03:27;;;;;;;5.82;5.05;;;24.30;96.70;;;;;;4965389;28;20093;-70
2023/05/28 08:05:58;;;;;;;9.27;6.00;;;24.40;96.70;;;;;;4964690;28;20464;-71
2023/05/28 08:08:27;;;;;;;6.18;5.38;;;24.50;96.70;;;;;;4982069;28;20057;-71
2023/05/28 08:10:57;;;;;;;7.10;5.20;;;24.50;96.70;;;;;;4964748;28;20053;-70
2023/05/28 08:13:25;;;;;;;7.43;5.60;;;24.70;96.70;;;;;;4961457;28;20109;-70
2023/05/28 08:15:59;;;;;;;7.32;5.10;;;24.70;96.70;;;;;;4947373;28;20074;-71
2023/05/28 08:18:44;;;;;;;7.03;5.65;;;24.80;96.70;;;;;;4961464;28;20692;-70
2023/05/28 08:21:13;;;;;;;11.15;6.03;;;24.90;96.70;;;;;;4964315;28;20066;-71
2023/05/28 08:23:42;;;;;;;6.45;5.13;;;24.90;96.70;;;;;;4965549;28;20739;-70
2023/05/28 08:26:11;;;;;;;6.53;4.65;;;24.90;96.70;;;;;;4967379;28;20054;-70
2023/05/28 08:28:39;;;;;;;6.38;5.53;;;25.00;96.70;;;;;;4966149;28;20065;-70
2023/05/28 08:31:09;;;;;;;8.02;5.35;;;25.10;96.70;;;;;;4985024;28;20050;-70
2023/05/28 08:33:58;;;;;;;8.57;4.93;;;25.20;96.70;;;;;;4928293;28;20081;-71
2023/05/28 08:36:26;;;;;;;6.22;4.80;;;25.30;96.70;;;;;;4966991;28;20054;-69
2023/05/28 08:38:57;;;;;;;7.45;4.85;;;25.40;96.70;;;;;;4967729;28;20133;-69
2023/05/28 08:41:26;;;;;;;5.88;5.28;;;25.40;96.70;;;;;;4967786;28;20068;-70
2023/05/28 08:43:54;;;;;;;6.22;5.63;;;25.40;96.70;;;;;;4967399;28;20056;-69
2023/05/28 08:46:25;;;;;;;7.95;6.30;;;25.60;96.70;;;;;;4984860;28;21055;-69
2023/05/28 08:49:18;;;;;;;6.25;5.65;;;25.70;96.70;;;;;;4967386;28;20747;-69
2023/05/28 08:51:53;;;;;;;6.45;4.85;;;25.80;96.70;;;;;;4951786;28;20068;-69
2023/05/28 08:54:25;;;;;;;6.50;5.80;;;25.90;96.70;;;;;;4965233;28;20058;-69
2023/05/28 08:56:54;;;;;;;8.68;6.78;;;26.00;96.70;;;;;;4960112;28;20050;-70
2023/05/28 08:59:24;;;;;;;7.47;5.45;;;25.90;96.70;;;;;;4951025;28;20077;-70
2023/05/28 09:01:55;;;;;;;8.13;4.82;;;25.80;96.70;;;;;;4981765;28;20615;-70
2023/05/28 09:04:23;;;;;;;6.28;5.22;;;25.80;96.70;;;;;;4965850;28;20539;-70
2023/05/28 09:06:52;;;;;;;5.03;4.53;;;25.80;96.70;;;;;;4964074;28;20066;-71
2023/05/28 09:09:50;;;;;;;5.40;4.90;;;25.90;96.70;;;;;;4905373;29;20418;-70
2023/05/28 09:12:22;;;;;;;6.20;4.85;;;26.10;96.70;;;;;;4889100;29;20614;-69
2023/05/28 09:14:56;;;;;;;6.25;4.90;;;26.30;96.70;;;;;;4888057;29;20632;-71
2023/05/28 09:17:36;;;;;;;5.97;4.70;;;26.40;96.70;;;;;;4888831;29;20883;-71
2023/05/28 09:20:10;;;;;;;;;;;26.50;96.70;;;;;;4889858;29;20565;-70
2023/05/28 09:22:40;;;;;;;7.10;6.43;;;26.20;96.70;;;;;;4904806;29;19985;-71
2023/05/28 09:25:32;;;;;;;5.57;5.07;;;26.00;96.70;;;;;;4888802;29;20056;-71
2023/05/28 09:28:15;;;;;;;5.55;4.65;;;26.10;96.70;;;;;;4887808;29;20171;-69
2023/05/28 09:30:43;;;;;;;5.53;5.00;;;26.30;96.70;;;;;;4905012;29;20048;-70
2023/05/28 09:33:12;;;;;;;6.03;4.65;;;26.50;96.70;;;;;;4904766;29;20120;-69
2023/05/28 09:35:40;;;;;;;5.90;4.82;;;26.30;96.70;;;;;;4904058;29;20059;-69
2023/05/28 09:38:10;;;;;;;5.57;4.43;;;26.30;96.70;;;;;;4904986;29;20044;-69
2023/05/28 09:40:39;;;;;;;6.15;4.95;;;26.40;96.70;;;;;;4889261;29;20553;-69
2023/05/28 09:43:08;;;;;;;6.75;5.05;;;26.70;96.70;;;;;;4903595;29;20048;-69
2023/05/28 09:45:36;;;;;;;4.93;4.40;;;26.90;96.70;;;;;;4917549;28;20066;-70
2023/05/28 09:48:04;;;;;;;6.28;4.60;;;27.10;96.70;;;;;;4984020;28;20061;-69
2023/05/28 09:50:33;;;;;;;4.80;4.30;;;27.20;96.70;;;;;;4983785;28;20046;-69
2023/05/28 09:53:05;;;;;;;4.50;4.10;;;27.40;96.70;;;;;;4966397;28;20046;-69
2023/05/28 09:55:35;;;;;;;5.35;4.32;;;27.30;96.70;;;;;;4983717;28;20050;-69
2023/05/28 09:58:05;;;;;;;5.18;4.75;;;27.20;96.70;;;;;;4965098;28;20054;-69
2023/05/28 10:00:34;;;;;;;6.75;4.72;;;27.40;96.70;;;;;;4983791;28;20042;-69
2023/05/28 10:03:18;;;;;;;6.03;4.43;;;27.60;96.70;;;;;;4965598;28;20115;-69
2023/05/28 10:05:51;;;;;;;4.85;4.43;;;27.70;96.70;;;;;;4963923;28;20056;-70
2023/05/28 10:08:21;;;;;;;6.18;4.63;;;27.70;96.70;;;;;;4983385;28;20038;-69
2023/05/28 10:10:52;;;;;;;6.13;5.07;;;27.80;96.70;;;;;;4983890;28;20050;-71
2023/05/28 10:13:20;;;;;;;6.55;4.28;;;27.80;96.70;;;;;;4965831;28;20127;-69
2023/05/28 10:15:48;;;;;;;5.32;4.10;;;27.80;96.70;;;;;;4965485;28;20050;-70
2023/05/28 10:18:17;;;;;;;6.55;4.47;;;27.80;96.70;;;;;;4982980;28;20129;-70
2023/05/28 10:20:48;;;;;;;5.35;4.05;;;27.80;96.70;;;;;;4983398;28;20101;-70
2023/05/28 10:23:17;;;;;;;5.97;4.53;;;27.80;96.70;;;;;;4983384;28;20126;-69
2023/05/28 10:25:45;;;;;;;4.75;4.35;;;28.00;96.70;;;;;;4983617;28;20042;-70
2023/05/28 10:28:15;;;;;;;5.22;4.50;;;28.10;96.70;;;;;;4982733;28;20069;-69
2023/05/28 10:30:43;;;;;;;6.40;5.57;;;28.20;96.70;;;;;;4983091;28;20058;-70
2023/05/28 10:33:14;;;;;;;4.43;4.03;;;28.40;96.70;;;;;;4982759;28;20050;-70
2023/05/28 10:35:53;;;;;;;5.22;4.72;;;28.70;96.70;;;;;;4978549;28;20050;-70
2023/05/28 10:38:23;;;;;;;5.28;4.78;;;28.80;96.70;;;;;;4965298;28;20148;-70
2023/05/28 10:40:51;;;;;;;5.82;4.22;;;28.60;96.70;;;;;;4981891;28;20038;-70
2023/05/28 10:43:52;;;;;;;4.88;4.30;;;28.90;96.70;;;;;;4981816;28;21196;-70
2023/05/28 10:46:35;;;;;;;6.28;4.13;;;28.90;96.70;;;;;;4920317;29;20135;-70
2023/05/28 10:49:08;;;;;;;6.28;4.43;;;28.80;96.70;;;;;;4921759;29;20067;-70
2023/05/28 10:51:56;;;;;;;4.78;3.78;;;28.80;96.70;;;;;;4922485;29;20060;-69
2023/05/28 10:54:40;;;;;;;6.05;4.70;;;28.90;96.70;;;;;;4920340;29;20510;-69
2023/05/28 10:57:10;;;;;;;4.55;3.88;;;29.10;96.70;;;;;;4905306;29;20542;-70
2023/05/28 10:59:42;;;;;;;5.60;3.97;;;28.90;96.70;;;;;;4921798;29;20561;-70
2023/05/28 11:02:10;;;;;;;5.50;3.92;;;29.00;96.70;;;;;;4919864;29;20545;-70
2023/05/28 11:04:39;;;;;;;4.43;4.00;;;29.30;96.70;;;;;;4910651;29;20112;-69
2023/05/28 11:07:09;;;;;;;4.78;4.38;;;29.40;96.70;;;;;;4919662;29;20051;-69
2023/05/28 11:09:37;;;;;;;4.30;3.90;;;29.40;96.70;;;;;;4921917;29;20052;-69
2023/05/28 11:12:06;;;;;;;4.65;4.15;;;29.40;96.70;;;;;;4921959;29;20106;-70
2023/05/28 11:14:35;;;;;;;6.03;4.80;;;29.20;96.70;;;;;;4921768;29;21344;-69
2023/05/28 11:17:09;;;;;;;4.82;4.32;;;29.50;96.70;;;;;;4929548;28;20054;-70
2023/05/28 11:19:42;;;;;;;5.68;4.75;;;29.70;96.70;;;;;;4964743;28;20137;-69
2023/05/28 11:22:12;;;;;;;4.80;4.30;;;30.00;96.70;;;;;;4965174;28;20047;-70
2023/05/28 11:24:51;;;;;;;5.47;4.80;;;30.10;96.70;;;;;;4982613;28;20140;-70
2023/05/28 11:27:20;;;;;;;5.35;4.40;;;30.20;96.70;;;;;;4981263;28;20706;-70
2023/05/28 11:29:48;;;;;;;4.22;3.63;;;30.20;96.70;;;;;;4980667;28;20575;-70
2023/05/28 11:32:19;;;;;;;6.40;4.20;;;30.30;96.70;;;;;;4981717;28;20152;-69
2023/05/28 11:34:49;;;;;;;3.88;3.58;;;30.20;96.70;;;;;;4982529;28;20050;-69
2023/05/28 11:37:24;;;;;;;4.40;3.78;;;30.00;96.70;;;;;;4965124;28;20551;-69
2023/05/28 11:39:54;;;;;;;4.60;3.92;;;29.70;96.70;;;;;;4964888;28;20595;-70
2023/05/28 11:42:23;;;;;;;3.95;3.55;;;29.50;96.70;;;;;;4981024;28;20042;-70
2023/05/28 11:44:52;;;;;;;4.72;3.85;;;29.80;96.70;;;;;;4965071;28;20051;-70
2023/05/28 11:47:21;;;;;;;6.63;4.80;;;29.80;96.70;;;;;;4981705;28;20410;-69
2023/05/28 11:49:49;;;;;;;4.43;3.75;;;29.80;96.70;;;;;;4982285;28;20050;-69
2023/05/28 11:52:20;;;;;;;4.40;4.00;;;30.20;96.70;;;;;;4982002;28;20536;-70
2023/05/28 11:54:53;;;;;;;4.30;3.85;;;30.40;96.70;;;;;;4982027;28;20038;-69
2023/05/28 11:57:23;;;;;;;4.38;3.95;;;30.60;96.70;;;;;;4962817;28;20046;-69
2023/05/28 11:59:56;;;;;;;5.13;3.70;;;30.70;96.70;;;;;;4985191;28;20038;-69
2023/05/28 12:02:24;;;;;;;4.13;3.80;;;30.90;96.70;;;;;;4985578;28;20066;-70
2023/05/28 12:05:00;;;;;;;4.85;4.05;;;31.00;96.70;;;;;;4984417;28;20042;-70
2023/05/28 12:07:34;;;;;;;5.20;4.32;;;31.00;96.70;;;;;;4980682;28;20124;-69
2023/05/28 12:10:07;;;;;;;3.72;3.38;;;31.00;96.70;;;;;;4968683;28;20042;-69
2023/05/28 12:16:07;;;;;;;4.40;4.00;;;31.00;96.70;;;;;;4985358;28;20444;-70
2023/05/28 12:18:40;;;;;;;5.65;3.95;;;31.30;96.70;;;;;;4985860;28;20495;-69
2023/05/28 12:21:12;;;;;;;5.90;4.10;;;31.30;96.70;;;;;;4985832;28;20081;-69
2023/05/28 12:23:42;;;;;;;5.95;4.15;;;31.20;96.70;;;;;;4968128;28;20520;-70
2023/05/28 12:26:14;;;;;;;4.20;3.80;;;31.30;96.70;;;;;;4985642;28;20604;-69
2023/05/28 12:28:43;;;;;;;6.63;4.30;;;31.40;96.70;;;;;;4965998;28;20137;-70
2023/05/28 12:31:11;;;;;;;6.10;4.20;;;31.40;96.70;;;;;;4984811;28;20054;-69
2023/05/28 12:33:39;;;;;;;5.68;3.67;;;31.20;96.70;;;;;;4968084;28;20506;-70
2023/05/28 12:36:08;;;;;;;6.72;4.25;;;31.20;96.70;;;;;;4968043;28;20039;-70
2023/05/28 12:38:36;;;;;;;4.35;3.55;;;31.30;96.70;;;;;;4985465;28;20089;-69
2023/05/28 12:41:06;;;;;;;3.63;3.28;;;31.20;96.70;;;;;;4967374;28;20042;-70
2023/05/28 12:43:34;;;;;;;4.20;3.72;;;31.30;96.70;;;;;;4967255;28;20400;-70
2023/05/28 12:46:02;;;;;;;4.47;3.50;;;31.50;96.70;;;;;;4979602;28;20065;-70
2023/05/28 12:48:30;;;;;;;5.00;3.42;;;31.70;96.70;;;;;;4966763;28;20061;-70
2023/05/28 12:50:58;;;;;;;5.47;3.88;;;31.70;96.70;;;;;;4985336;28;20042;-69
2023/05/28 12:53:27;;;;;;;4.80;4.00;;;31.70;96.70;;;;;;4984916;28;20047;-70
2023/05/28 12:55:54;;;;;;;4.43;3.80;;;31.80;96.70;;;;;;4983679;28;20061;-70
2023/05/28 12:58:24;;;;;;;4.57;4.05;;;31.90;96.70;;;;;;4984633;28;20143;-69
2023/05/28 13:00:52;;;;;;;5.95;4.25;;;31.90;96.70;;;;;;4984719;28;20108;-70
2023/05/28 13:03:21;;;;;;;4.60;4.05;;;32.00;96.70;;;;;;4985299;28;20050;-69
2023/05/28 13:05:50;;;;;;;3.90;3.50;;;32.10;96.70;;;;;;4967680;28;20508;-70
2023/05/28 13:08:18;;;;;;;4.97;3.97;;;32.30;96.70;;;;;;4984630;28;20060;-70
2023/05/28 13:10:46;;;;;;;4.90;4.00;;;32.50;96.70;;;;;;4984693;28;20051;-70
2023/05/28 13:13:14;;;;;;;5.53;3.70;;;32.60;96.70;;;;;;4984839;28;20053;-70
2023/05/28 13:15:44;;;;;;;3.92;3.53;;;32.70;96.70;;;;;;4984338;28;20042;-70
2023/05/28 13:18:13;;;;;;;4.53;4.13;;;32.80;96.70;;;;;;4967161;28;20145;-70
2023/05/28 13:20:41;;;;;;;4.00;3.35;;;32.80;96.70;;;;;;4984140;28;20034;-70
2023/05/28 13:23:09;;;;;;;7.63;4.30;;;33.00;96.10;;;;;;4984614;28;20136;-70
2023/05/28 13:25:37;;;;;;;4.28;3.88;;;33.20;96.70;;;;;;4984338;28;20042;-71
2023/05/28 13:28:05;;;;;;;6.47;4.00;;;33.30;96.70;;;;;;4984187;28;20690;-70
2023/05/28 13:30:33;;;;;;;4.32;3.63;;;33.40;96.70;;;;;;4966832;28;20038;-70
2023/05/28 13:33:03;;;;;;;4.85;3.55;;;33.60;96.70;;;;;;4966748;28;20645;-71
2023/05/28 13:35:31;;;;;;;4.05;3.65;;;33.80;96.10;;;;;;4983726;28;20156;-70
2023/05/28 13:38:00;;;;;;;4.65;4.07;;;34.00;96.30;;;;;;4966522;28;20054;-70
2023/05/28 13:40:28;;;;;;;5.30;4.15;;;34.20;95.70;;;;;;4984496;28;20562;-70
2023/05/28 13:42:56;;;;;;;4.07;3.67;;;34.00;96.70;;;;;;4966657;28;20047;-70
2023/05/28 13:45:24;;;;;;;4.47;4.03;;;33.50;96.70;;;;;;4966495;28;20054;-70
2023/05/28 13:47:53;;;;;;;4.47;3.75;;;33.70;96.70;;;;;;4965433;28;20043;-70
2023/05/28 13:50:23;;;;;;;5.25;4.00;;;33.20;96.70;;;;;;4983904;28;20038;-70
2023/05/28 13:52:51;;;;;;;4.53;4.03;;;32.80;96.70;;;;;;4983760;28;20050;-70
2023/05/28 13:55:19;;;;;;;4.07;3.67;;;32.20;96.70;;;;;;4966939;28;20043;-70
2023/05/28 13:57:48;;;;;;;4.25;3.85;;;32.10;96.70;;;;;;4983819;28;20042;-70
2023/05/28 14:00:17;;;;;;;4.47;3.28;;;32.80;96.70;;;;;;4983635;28;20074;-70
2023/05/28 14:03:05;;;;;;;4.07;3.70;;;33.20;96.40;;;;;;4968635;28;20132;-70
2023/05/28 14:05:36;;;;;;;4.28;3.88;;;33.50;95.80;;;;;;4983896;28;20050;-69
2023/05/28 14:08:05;;;;;;;4.57;3.67;;;33.70;94.80;;;;;;4983261;28;20420;-70
2023/05/28 14:10:33;;;;;;;4.00;3.70;;;33.10;95.00;;;;;;4965392;28;20449;-70
2023/05/28 14:13:01;;;;;;;3.90;3.50;;;32.40;96.70;;;;;;4983287;28;20425;-69
2023/05/28 14:15:29;;;;;;;5.63;4.15;;;32.00;96.70;;;;;;4982674;28;20129;-69
2023/05/28 14:17:58;;;;;;;3.95;3.30;;;31.50;96.70;;;;;;4983656;28;20699;-69
2023/05/28 14:20:26;;;;;;;4.45;3.60;;;31.10;96.70;;;;;;4983628;28;20105;-70
2023/05/28 14:22:56;;;;;;;4.80;3.65;;;30.90;96.70;;;;;;4965469;28;20050;-69
2023/05/28 14:25:24;;;;;;;4.47;3.95;;;30.70;96.70;;;;;;4967526;28;20165;-70
2023/05/28 14:27:52;;;;;;;4.00;3.60;;;30.60;96.70;;;;;;4982731;28;20050;-69
2023/05/28 14:30:37;;;;;;;4.15;3.75;;;30.50;96.70;;;;;;4965604;28;20046;-70
2023/05/28 14:33:05;;;;;;;3.90;3.50;;;31.30;96.70;;;;;;4982545;28;20089;-69
2023/05/28 14:35:33;;;;;;;3.53;2.90;;;32.50;96.70;;;;;;4982474;28;20046;-70
2023/05/28 14:38:02;;;;;;;5.18;3.70;;;33.10;96.70;;;;;;4964943;28;20038;-69
2023/05/28 14:40:30;;;;;;;3.90;3.58;;;34.00;96.00;;;;;;4982935;28;20046;-70
2023/05/28 14:42:58;;;;;;;4.10;3.70;;;34.60;94.30;;;;;;4983001;28;20045;-70
2023/05/28 14:45:26;;;;;;;3.95;3.63;;;34.70;93.80;;;;;;4983381;28;20050;-69
2023/05/28 14:47:54;;;;;;;3.50;3.20;;;34.70;92.40;;;;;;4982568;28;20048;-70
2023/05/28 14:50:23;;;;;;;4.25;3.70;;;34.70;93.10;;;;;;4981208;28;20046;-70
2023/05/28 14:52:51;;;;;;;4.38;3.50;;;33.70;93.70;;;;;;4964446;28;20062;-70
2023/05/28 14:55:21;;;;;;;3.88;3.55;;;33.80;95.30;;;;;;4983142;28;20257;-70
2023/05/28 14:57:48;;;;;;;4.53;3.33;;;34.50;95.90;;;;;;4982586;28;20125;-70
2023/05/28 15:00:17;;;;;;;3.97;3.45;;;35.40;93.60;;;;;;4965289;28;20046;-70
2023/05/28 15:02:45;;;;;;;5.22;3.78;;;35.90;92.00;;;;;;4982098;28;20046;-70
2023/05/28 15:05:13;;;;;;;4.13;3.50;;;36.40;91.60;;;;;;4982411;28;20544;-70
2023/05/28 15:07:41;;;;;;;7.50;4.43;;;36.80;89.30;;;;;;4982445;28;20512;-69
2023/05/28 15:10:10;;;;;;;6.22;3.80;;;37.20;90.00;;;;;;4982465;28;20137;-69
2023/05/28 15:12:39;;;;;;;3.55;3.03;;;37.40;89.10;;;;;;4982366;28;20097;-69
2023/05/28 15:15:09;;;;;;;3.88;3.45;;;37.60;87.50;;;;;;4964690;28;20042;-69
2023/05/28 15:17:37;;;;;;;5.45;3.70;;;37.80;86.50;;;;;;4982462;28;20049;-71
2023/05/28 15:20:06;;;;;;;3.83;3.53;;;38.00;86.00;;;;;;4982505;28;20058;-71
2023/05/28 15:22:34;;;;;;;3.85;3.40;;;38.10;87.10;;;;;;4948953;28;20050;-69